sensor_id;sensor_type;location;lat;lon;timestamp;P1;durP1;ratioP1;P2;durP2;ratioP2
34471;SDS011;20710;49.976;19.836;2022-07-23T00:05:22;13.55;;;9.65;;
34471;SDS011;20710;49.976;19.836;2022-07-23T00:11:24;12.18;;;8.70;;
34471;SDS011;20710;49.976;19.836;2022-07-23T00:17:26;15.50;;;8.50;;
34471;SDS011;20710;49.976;19.836;2022-07-23T00:23:28;12.90;;;10.05;;
34471;SDS011;20710;49.976;19.836;2022-07-23T00:29:33;13.93;;;10.32;;
34471;SDS011;20710;49.976;19.836;2022-07-23T00:35:37;11.35;;;8.05;;
34471;SDS011;20710;49.976;19.836;2022-07-23T00:41:48;10.18;;;8.53;;
34471;SDS011;20710;49.976;19.836;2022-07-23T00:47:51;14.23;;;10.35;;
34471;SDS011;20710;49.976;19.836;2022-07-23T00:53:56;14.85;;;9.95;;
34471;SDS011;20710;49.976;19.836;2022-07-23T01:00:03;18.20;;;9.05;;
34471;SDS011;20710;49.976;19.836;2022-07-23T01:06:09;14.70;;;9.23;;
34471;SDS011;20710;49.976;19.836;2022-07-23T01:12:12;16.10;;;9.38;;
34471;SDS011;20710;49.976;19.836;2022-07-23T01:18:15;15.40;;;9.15;;
34471;SDS011;20710;49.976;19.836;2022-07-23T01:24:20;16.90;;;9.80;;
34471;SDS011;20710;49.976;19.836;2022-07-23T01:30:34;13.93;;;9.75;;
34471;SDS011;20710;49.976;19.836;2022-07-23T01:36:42;12.45;;;9.53;;
34471;SDS011;20710;49.976;19.836;2022-07-23T01:42:45;13.55;;;8.95;;
34471;SDS011;20710;49.976;19.836;2022-07-23T01:48:49;11.33;;;8.48;;
34471;SDS011;20710;49.976;19.836;2022-07-23T01:55:04;11.10;;;9.20;;
34471;SDS011;20710;49.976;19.836;2022-07-23T02:01:10;12.60;;;8.85;;
34471;SDS011;20710;49.976;19.836;2022-07-23T02:07:12;14.35;;;10.53;;
34471;SDS011;20710;49.976;19.836;2022-07-23T02:13:20;13.68;;;9.68;;
34471;SDS011;20710;49.976;19.836;2022-07-23T02:19:21;15.03;;;9.83;;
34471;SDS011;20710;49.976;19.836;2022-07-23T02:25:29;16.25;;;9.08;;
34471;SDS011;20710;49.976;19.836;2022-07-23T02:31:35;13.72;;;9.45;;
34471;SDS011;20710;49.976;19.836;2022-07-23T02:37:43;14.78;;;9.55;;
34471;SDS011;20710;49.976;19.836;2022-07-23T02:43:51;11.80;;;10.03;;
34471;SDS011;20710;49.976;19.836;2022-07-23T02:49:54;12.25;;;9.73;;
34471;SDS011;20710;49.976;19.836;2022-07-23T02:55:58;15.43;;;9.70;;
34471;SDS011;20710;49.976;19.836;2022-07-23T03:02:01;14.63;;;11.10;;
34471;SDS011;20710;49.976;19.836;2022-07-23T03:08:04;15.03;;;10.53;;
34471;SDS011;20710;49.976;19.836;2022-07-23T03:14:11;13.00;;;10.10;;
34471;SDS011;20710;49.976;19.836;2022-07-23T03:20:15;17.25;;;10.88;;
34471;SDS011;20710;49.976;19.836;2022-07-23T03:26:17;11.57;;;9.48;;
34471;SDS011;20710;49.976;19.836;2022-07-23T03:32:23;16.65;;;10.55;;
34471;SDS011;20710;49.976;19.836;2022-07-23T03:38:31;13.58;;;9.73;;
34471;SDS011;20710;49.976;19.836;2022-07-23T03:44:33;14.18;;;9.88;;
34471;SDS011;20710;49.976;19.836;2022-07-23T03:50:38;13.08;;;9.75;;
34471;SDS011;20710;49.976;19.836;2022-07-23T03:56:42;13.65;;;10.08;;
34471;SDS011;20710;49.976;19.836;2022-07-23T04:02:48;14.00;;;9.65;;
34471;SDS011;20710;49.976;19.836;2022-07-23T04:08:56;13.88;;;10.20;;
34471;SDS011;20710;49.976;19.836;2022-07-23T04:14:57;14.28;;;8.75;;
34471;SDS011;20710;49.976;19.836;2022-07-23T04:20:59;10.90;;;9.45;;
34471;SDS011;20710;49.976;19.836;2022-07-23T04:27:11;12.55;;;9.73;;
34471;SDS011;20710;49.976;19.836;2022-07-23T04:33:15;14.10;;;9.15;;
34471;SDS011;20710;49.976;19.836;2022-07-23T04:39:22;13.15;;;8.68;;
34471;SDS011;20710;49.976;19.836;2022-07-23T04:45:25;15.38;;;9.25;;
34471;SDS011;20710;49.976;19.836;2022-07-23T04:51:33;14.07;;;9.50;;
34471;SDS011;20710;49.976;19.836;2022-07-23T04:57:37;13.35;;;9.90;;
34471;SDS011;20710;49.976;19.836;2022-07-23T05:03:38;12.47;;;9.68;;
34471;SDS011;20710;49.976;19.836;2022-07-23T05:09:40;15.38;;;9.60;;
34471;SDS011;20710;49.976;19.836;2022-07-23T05:15:43;13.18;;;9.05;;
34471;SDS011;20710;49.976;19.836;2022-07-23T05:21:50;11.28;;;9.40;;
34471;SDS011;20710;49.976;19.836;2022-07-23T05:27:57;12.18;;;9.50;;
34471;SDS011;20710;49.976;19.836;2022-07-23T05:34:00;12.88;;;9.30;;
34471;SDS011;20710;49.976;19.836;2022-07-23T05:40:11;12.23;;;9.13;;
34471;SDS011;20710;49.976;19.836;2022-07-23T05:46:17;13.65;;;9.23;;
34471;SDS011;20710;49.976;19.836;2022-07-23T05:52:20;12.15;;;8.98;;
34471;SDS011;20710;49.976;19.836;2022-07-23T05:58:23;10.72;;;9.23;;
34471;SDS011;20710;49.976;19.836;2022-07-23T06:04:26;12.33;;;9.28;;
34471;SDS011;20710;49.976;19.836;2022-07-23T06:10:34;12.30;;;8.90;;
34471;SDS011;20710;49.976;19.836;2022-07-23T06:16:39;16.77;;;9.85;;
34471;SDS011;20710;49.976;19.836;2022-07-23T06:22:47;12.85;;;8.85;;
34471;SDS011;20710;49.976;19.836;2022-07-23T06:28:50;10.85;;;8.83;;
34471;SDS011;20710;49.976;19.836;2022-07-23T06:35:00;15.23;;;9.83;;
34471;SDS011;20710;49.976;19.836;2022-07-23T06:41:13;11.73;;;8.68;;
34471;SDS011;20710;49.976;19.836;2022-07-23T06:47:18;12.07;;;8.75;;
34471;SDS011;20710;49.976;19.836;2022-07-23T06:53:24;10.90;;;9.03;;
34471;SDS011;20710;49.976;19.836;2022-07-23T06:59:35;13.58;;;8.73;;
34471;SDS011;20710;49.976;19.836;2022-07-23T07:05:44;11.57;;;9.58;;
34471;SDS011;20710;49.976;19.836;2022-07-23T07:11:55;12.45;;;9.15;;
34471;SDS011;20710;49.976;19.836;2022-07-23T07:17:57;15.40;;;9.75;;
34471;SDS011;20710;49.976;19.836;2022-07-23T07:24:02;12.50;;;9.73;;
34471;SDS011;20710;49.976;19.836;2022-07-23T07:30:06;13.30;;;9.35;;
34471;SDS011;20710;49.976;19.836;2022-07-23T07:36:11;15.85;;;10.43;;
34471;SDS011;20710;49.976;19.836;2022-07-23T07:42:19;13.28;;;9.80;;
34471;SDS011;20710;49.976;19.836;2022-07-23T07:48:20;11.50;;;9.33;;
34471;SDS011;20710;49.976;19.836;2022-07-23T07:54:24;12.53;;;9.25;;
34471;SDS011;20710;49.976;19.836;2022-07-23T08:00:26;12.37;;;8.50;;
34471;SDS011;20710;49.976;19.836;2022-07-23T08:06:31;10.43;;;8.28;;
34471;SDS011;20710;49.976;19.836;2022-07-23T08:12:42;9.45;;;7.65;;
34471;SDS011;20710;49.976;19.836;2022-07-23T08:18:45;11.43;;;8.65;;
34471;SDS011;20710;49.976;19.836;2022-07-23T08:24:49;10.38;;;8.18;;
34471;SDS011;20710;49.976;19.836;2022-07-23T08:30:54;9.13;;;7.65;;
34471;SDS011;20710;49.976;19.836;2022-07-23T08:36:59;10.93;;;8.55;;
34471;SDS011;20710;49.976;19.836;2022-07-23T08:43:04;14.10;;;8.15;;
34471;SDS011;20710;49.976;19.836;2022-07-23T08:49:07;10.40;;;8.38;;
34471;SDS011;20710;49.976;19.836;2022-07-23T08:55:11;10.00;;;8.20;;
34471;SDS011;20710;49.976;19.836;2022-07-23T09:01:14;11.15;;;8.20;;
34471;SDS011;20710;49.976;19.836;2022-07-23T09:07:15;10.23;;;7.45;;
34471;SDS011;20710;49.976;19.836;2022-07-23T09:19:30;8.40;;;7.60;;
34471;SDS011;20710;49.976;19.836;2022-07-23T09:25:31;8.58;;;6.70;;
34471;SDS011;20710;49.976;19.836;2022-07-23T09:38:02;10.10;;;6.80;;
34471;SDS011;20710;49.976;19.836;2022-07-23T09:44:07;7.30;;;6.20;;
34471;SDS011;20710;49.976;19.836;2022-07-23T09:50:19;8.55;;;6.83;;
34471;SDS011;20710;49.976;19.836;2022-07-23T10:02:48;6.95;;;6.10;;
34471;SDS011;20710;49.976;19.836;2022-07-23T10:09:12;8.18;;;5.70;;
34471;SDS011;20710;49.976;19.836;2022-07-23T10:15:36;11.73;;;6.43;;
34471;SDS011;20710;49.976;19.836;2022-07-23T10:21:43;6.87;;;6.20;;
34471;SDS011;20710;49.976;19.836;2022-07-23T10:28:18;6.20;;;5.60;;
34471;SDS011;20710;49.976;19.836;2022-07-23T10:41:36;7.08;;;5.35;;
34471;SDS011;20710;49.976;19.836;2022-07-23T10:47:43;5.45;;;5.00;;
34471;SDS011;20710;49.976;19.836;2022-07-23T10:53:53;6.70;;;5.87;;
34471;SDS011;20710;49.976;19.836;2022-07-23T11:06:17;6.35;;;5.72;;
34471;SDS011;20710;49.976;19.836;2022-07-23T11:25:08;5.25;;;4.75;;
34471;SDS011;20710;49.976;19.836;2022-07-23T11:31:18;6.10;;;5.50;;
34471;SDS011;20710;49.976;19.836;2022-07-23T11:43:39;5.87;;;4.90;;
34471;SDS011;20710;49.976;19.836;2022-07-23T11:49:57;6.50;;;5.42;;
34471;SDS011;20710;49.976;19.836;2022-07-23T11:56:07;7.95;;;5.30;;
34471;SDS011;20710;49.976;19.836;2022-07-23T12:02:14;6.53;;;4.67;;
34471;SDS011;20710;49.976;19.836;2022-07-23T12:08:16;5.58;;;5.08;;
34471;SDS011;20710;49.976;19.836;2022-07-23T12:14:19;5.33;;;4.83;;
34471;SDS011;20710;49.976;19.836;2022-07-23T12:20:36;6.83;;;5.65;;
34471;SDS011;20710;49.976;19.836;2022-07-23T12:33:23;6.17;;;5.22;;
34471;SDS011;20710;49.976;19.836;2022-07-23T12:39:30;6.13;;;5.20;;
34471;SDS011;20710;49.976;19.836;2022-07-23T12:45:53;6.13;;;5.07;;
34471;SDS011;20710;49.976;19.836;2022-07-23T12:51:46;6.12;;;5.53;;
34471;SDS011;20710;49.976;19.836;2022-07-23T12:57:51;7.30;;;5.53;;
34471;SDS011;20710;49.976;19.836;2022-07-23T13:03:57;7.87;;;5.75;;
34471;SDS011;20710;49.976;19.836;2022-07-23T13:10:13;7.42;;;6.08;;
34471;SDS011;20710;49.976;19.836;2022-07-23T13:16:15;10.32;;;6.75;;
34471;SDS011;20710;49.976;19.836;2022-07-23T13:22:20;6.37;;;5.77;;
34471;SDS011;20710;49.976;19.836;2022-07-23T13:28:21;8.75;;;6.75;;
34471;SDS011;20710;49.976;19.836;2022-07-23T13:34:25;7.40;;;6.30;;
34471;SDS011;20710;49.976;19.836;2022-07-23T13:40:40;7.03;;;6.33;;
34471;SDS011;20710;49.976;19.836;2022-07-23T13:46:50;8.10;;;6.40;;
34471;SDS011;20710;49.976;19.836;2022-07-23T13:52:54;7.45;;;6.17;;
34471;SDS011;20710;49.976;19.836;2022-07-23T13:58:56;7.42;;;6.10;;
34471;SDS011;20710;49.976;19.836;2022-07-23T14:05:01;7.17;;;6.22;;
34471;SDS011;20710;49.976;19.836;2022-07-23T14:11:11;7.00;;;6.17;;
34471;SDS011;20710;49.976;19.836;2022-07-23T14:17:13;6.95;;;6.25;;
34471;SDS011;20710;49.976;19.836;2022-07-23T14:23:18;7.17;;;6.47;;
34471;SDS011;20710;49.976;19.836;2022-07-23T14:29:22;7.00;;;6.30;;
34471;SDS011;20710;49.976;19.836;2022-07-23T14:35:24;9.10;;;6.70;;
34471;SDS011;20710;49.976;19.836;2022-07-23T14:41:25;7.70;;;7.00;;
34471;SDS011;20710;49.976;19.836;2022-07-23T14:47:27;7.95;;;7.00;;
34471;SDS011;20710;49.976;19.836;2022-07-23T14:53:31;7.55;;;6.75;;
34471;SDS011;20710;49.976;19.836;2022-07-23T14:59:40;37.78;;;8.03;;
34471;SDS011;20710;49.976;19.836;2022-07-23T15:05:43;241.75;;;26.90;;
34471;SDS011;20710;49.976;19.836;2022-07-23T15:11:44;19.07;;;4.92;;
34471;SDS011;20710;49.976;19.836;2022-07-23T15:17:46;11.20;;;6.10;;
34471;SDS011;20710;49.976;19.836;2022-07-23T15:23:52;10.20;;;4.95;;
34471;SDS011;20710;49.976;19.836;2022-07-23T15:30:03;8.10;;;5.67;;
34471;SDS011;20710;49.976;19.836;2022-07-23T15:36:09;7.03;;;6.33;;
34471;SDS011;20710;49.976;19.836;2022-07-23T15:42:16;7.35;;;5.87;;
34471;SDS011;20710;49.976;19.836;2022-07-23T15:48:21;10.35;;;5.78;;
34471;SDS011;20710;49.976;19.836;2022-07-23T15:54:36;8.25;;;5.55;;
34471;SDS011;20710;49.976;19.836;2022-07-23T16:00:39;9.70;;;5.53;;
34471;SDS011;20710;49.976;19.836;2022-07-23T16:06:41;8.80;;;6.12;;
34471;SDS011;20710;49.976;19.836;2022-07-23T16:12:43;9.35;;;6.40;;
34471;SDS011;20710;49.976;19.836;2022-07-23T16:18:50;13.95;;;8.40;;
34471;SDS011;20710;49.976;19.836;2022-07-23T16:37:29;12.35;;;8.78;;
34471;SDS011;20710;49.976;19.836;2022-07-23T16:43:37;12.98;;;9.33;;
34471;SDS011;20710;49.976;19.836;2022-07-23T16:49:38;15.45;;;9.35;;
34471;SDS011;20710;49.976;19.836;2022-07-23T16:55:40;10.70;;;9.60;;
34471;SDS011;20710;49.976;19.836;2022-07-23T17:01:42;10.40;;;7.58;;
34471;SDS011;20710;49.976;19.836;2022-07-23T17:07:44;11.05;;;8.70;;
34471;SDS011;20710;49.976;19.836;2022-07-23T17:13:45;11.60;;;8.68;;
34471;SDS011;20710;49.976;19.836;2022-07-23T17:19:46;9.23;;;8.20;;
34471;SDS011;20710;49.976;19.836;2022-07-23T17:25:49;11.12;;;9.13;;
34471;SDS011;20710;49.976;19.836;2022-07-23T17:31:57;13.15;;;8.60;;
34471;SDS011;20710;49.976;19.836;2022-07-23T17:38:09;19.55;;;9.48;;
34471;SDS011;20710;49.976;19.836;2022-07-23T17:44:11;10.25;;;8.73;;
34471;SDS011;20710;49.976;19.836;2022-07-23T17:50:24;12.18;;;9.43;;
34471;SDS011;20710;49.976;19.836;2022-07-23T17:56:28;11.25;;;9.03;;
34471;SDS011;20710;49.976;19.836;2022-07-23T18:02:40;14.10;;;9.83;;
34471;SDS011;20710;49.976;19.836;2022-07-23T18:08:50;14.90;;;10.05;;
34471;SDS011;20710;49.976;19.836;2022-07-23T18:14:59;16.07;;;9.68;;
34471;SDS011;20710;49.976;19.836;2022-07-23T18:21:02;12.85;;;10.55;;
34471;SDS011;20710;49.976;19.836;2022-07-23T18:27:07;12.78;;;11.40;;
34471;SDS011;20710;49.976;19.836;2022-07-23T18:33:09;15.15;;;12.80;;
34471;SDS011;20710;49.976;19.836;2022-07-23T18:39:14;15.23;;;13.62;;
34471;SDS011;20710;49.976;19.836;2022-07-23T18:45:16;17.17;;;12.23;;
34471;SDS011;20710;49.976;19.836;2022-07-23T18:51:17;20.85;;;13.75;;
34471;SDS011;20710;49.976;19.836;2022-07-23T18:57:20;18.57;;;13.22;;
34471;SDS011;20710;49.976;19.836;2022-07-23T19:03:21;16.80;;;12.47;;
34471;SDS011;20710;49.976;19.836;2022-07-23T19:09:22;16.52;;;13.35;;
34471;SDS011;20710;49.976;19.836;2022-07-23T19:21:48;18.17;;;13.68;;
34471;SDS011;20710;49.976;19.836;2022-07-23T19:27:50;17.25;;;13.83;;
34471;SDS011;20710;49.976;19.836;2022-07-23T19:39:59;20.60;;;14.58;;
34471;SDS011;20710;49.976;19.836;2022-07-23T19:46:04;20.45;;;14.43;;
34471;SDS011;20710;49.976;19.836;2022-07-23T19:52:05;18.40;;;14.30;;
34471;SDS011;20710;49.976;19.836;2022-07-23T19:58:10;17.37;;;14.03;;
34471;SDS011;20710;49.976;19.836;2022-07-23T20:04:11;15.60;;;12.88;;
34471;SDS011;20710;49.976;19.836;2022-07-23T20:10:18;19.87;;;13.15;;
34471;SDS011;20710;49.976;19.836;2022-07-23T20:16:20;19.95;;;12.98;;
34471;SDS011;20710;49.976;19.836;2022-07-23T20:22:22;15.83;;;12.15;;
34471;SDS011;20710;49.976;19.836;2022-07-23T20:28:24;16.07;;;13.38;;
34471;SDS011;20710;49.976;19.836;2022-07-23T20:34:27;20.50;;;13.05;;
34471;SDS011;20710;49.976;19.836;2022-07-23T20:40:29;16.12;;;13.25;;
34471;SDS011;20710;49.976;19.836;2022-07-23T20:46:31;17.55;;;12.37;;
34471;SDS011;20710;49.976;19.836;2022-07-23T20:52:35;18.57;;;13.30;;
34471;SDS011;20710;49.976;19.836;2022-07-23T20:58:38;18.75;;;12.98;;
34471;SDS011;20710;49.976;19.836;2022-07-23T21:04:40;16.20;;;13.18;;
34471;SDS011;20710;49.976;19.836;2022-07-23T21:10:46;20.08;;;12.40;;
34471;SDS011;20710;49.976;19.836;2022-07-23T21:16:47;15.28;;;12.23;;
34471;SDS011;20710;49.976;19.836;2022-07-23T21:22:49;16.62;;;12.37;;
34471;SDS011;20710;49.976;19.836;2022-07-23T21:28:50;17.77;;;13.93;;
34471;SDS011;20710;49.976;19.836;2022-07-23T21:34:53;20.27;;;12.28;;
34471;SDS011;20710;49.976;19.836;2022-07-23T21:40:56;15.98;;;12.65;;
34471;SDS011;20710;49.976;19.836;2022-07-23T21:46:58;17.32;;;14.05;;
34471;SDS011;20710;49.976;19.836;2022-07-23T21:52:59;18.92;;;14.18;;
34471;SDS011;20710;49.976;19.836;2022-07-23T21:59:00;18.15;;;12.68;;
34471;SDS011;20710;49.976;19.836;2022-07-23T22:05:02;17.17;;;14.03;;
34471;SDS011;20710;49.976;19.836;2022-07-23T22:11:06;15.60;;;13.80;;
34471;SDS011;20710;49.976;19.836;2022-07-23T22:17:08;14.43;;;11.38;;
34471;SDS011;20710;49.976;19.836;2022-07-23T22:23:09;16.97;;;14.18;;
34471;SDS011;20710;49.976;19.836;2022-07-23T22:29:11;20.80;;;13.88;;
34471;SDS011;20710;49.976;19.836;2022-07-23T22:35:14;16.57;;;12.75;;
34471;SDS011;20710;49.976;19.836;2022-07-23T22:41:18;23.35;;;14.47;;
34471;SDS011;20710;49.976;19.836;2022-07-23T22:47:23;19.12;;;13.65;;
34471;SDS011;20710;49.976;19.836;2022-07-23T22:53:29;19.87;;;15.43;;
34471;SDS011;20710;49.976;19.836;2022-07-23T22:59:30;18.27;;;13.93;;
34471;SDS011;20710;49.976;19.836;2022-07-23T23:05:31;20.27;;;15.13;;
34471;SDS011;20710;49.976;19.836;2022-07-23T23:11:35;19.55;;;14.95;;
34471;SDS011;20710;49.976;19.836;2022-07-23T23:17:39;21.93;;;15.80;;
34471;SDS011;20710;49.976;19.836;2022-07-23T23:23:41;23.35;;;16.97;;
34471;SDS011;20710;49.976;19.836;2022-07-23T23:29:42;21.70;;;16.23;;
34471;SDS011;20710;49.976;19.836;2022-07-23T23:35:44;21.50;;;16.80;;
34471;SDS011;20710;49.976;19.836;2022-07-23T23:41:50;17.17;;;15.05;;
34471;SDS011;20710;49.976;19.836;2022-07-23T23:47:52;22.30;;;16.50;;
34471;SDS011;20710;49.976;19.836;2022-07-23T23:53:57;24.18;;;18.05;;
